^^
Grace C. Lehan Memorial Weather Station Historical Data
Daily Summary for June 6, 2021 Units:  Metric    English   Both
Daily Weekly Monthly Yearly
  High: Low: Average:
Temperature: 28.8 °C 17.4 °C 22.8 °C
Dew Point: 21.9 °C 14.3 °C 17.9 °C
Humidity: 97% 46.1% 77%
Wind Speed: 7.6km/h 0km/h 1.1km/h
Wind Gust: 27.4km/h - -
Wind- - WSW
Pressure: 1010.7 hPa 1005 hPa -
Precipitation: 0.25 mm    
 
 
Tabular Data for June 6, 2021
Time Temperature Dew Point Pressure Wind Wind Speed Wind Gust Humidity Rainfall Rate (Hourly) solar
00:00 20.1 °C 19.4 °C 1007 hPa Calm     96% 0 mm 0 W/m2
00:09 20.2 °C 19.5 °C 1007.3 hPa Calm     96% 0 mm 0 W/m2
00:14 20.2 °C 19.5 °C 1007.3 hPa Calm     96% 0 mm 0 W/m2
00:19 20.2 °C 19.6 °C 1007.3 hPa Calm     96% 0 mm 0 W/m2
00:24 20.2 °C 19.6 °C 1007.3 hPa Calm     96% 0 mm 0 W/m2
00:29 20.2 °C 19.6 °C 1007.3 hPa Calm     96% 0 mm 0 W/m2
00:34 20.2 °C 19.6 °C 1007.3 hPa Calm     96% 0 mm 0 W/m2
00:39 20.2 °C 19.6 °C 1007 hPa Calm     96% 0 mm 0 W/m2
00:44 20.2 °C 19.5 °C 1007.3 hPa Calm     96% 0 mm 0 W/m2
00:49 20.2 °C 19.5 °C 1007.3 hPa Calm     96% 0 mm 0 W/m2
00:54 20.2 °C 19.7 °C 1007.3 hPa Calm     96.8% 0 mm 0 W/m2
00:59 20.2 °C 19.7 °C 1007.3 hPa Calm     97% 0 mm 0 W/m2
01:04 20.2 °C 19.7 °C 1007.3 hPa Calm     97% 0 mm 0 W/m2
01:09 20.2 °C 19.7 °C 1007 hPa Calm     97% 0 mm 0 W/m2
01:14 20.2 °C 19.7 °C 1007 hPa Calm     97% 0 mm 0 W/m2
01:19 20.2 °C 19.7 °C 1007 hPa Calm     97% 0 mm 0 W/m2
01:24 20.2 °C 19.7 °C 1007 hPa Calm     97% 0 mm 0 W/m2
01:29 20.2 °C 19.6 °C 1007 hPa Calm     96.5% 0 mm 0 W/m2
01:34 20.2 °C 19.5 °C 1007 hPa Calm     96% 0 mm 0 W/m2
01:39 20.2 °C 19.5 °C 1007 hPa Calm     96% 0 mm 0 W/m2
01:44 20.1 °C 19.4 °C 1007 hPa Calm     96% 0 mm 0 W/m2
01:49 20.1 °C 19.4 °C 1007 hPa Calm     96% 0 mm 0 W/m2
01:54 20.1 °C 19.4 °C 1007 hPa Calm     96% 0 mm 0 W/m2
01:59 20.1 °C 19.4 °C 1007 hPa Calm     96% 0 mm 0 W/m2
02:04 20.1 °C 19.4 °C 1007 hPa Calm     96% 0 mm 0 W/m2
02:09 20.1 °C 19.4 °C 1007 hPa Calm     96% 0 mm 0 W/m2
02:14 20.1 °C 19.4 °C 1007 hPa Calm     96% 0 mm 0 W/m2
02:19 20.1 °C 19.4 °C 1007 hPa Calm     96% 0 mm 0 W/m2
02:24 20.1 °C 19.4 °C 1007 hPa Calm     96% 0 mm 0 W/m2
02:29 20.1 °C 19.4 °C 1007 hPa Calm     96% 0 mm 0 W/m2
02:34 20 °C 19.3 °C 1007 hPa Calm     96% 0 mm 0 W/m2
02:39 19.9 °C 19.4 °C 1006.7 hPa Calm     96.4% 0 mm 0 W/m2
02:44 19.9 °C 19.4 °C 1007 hPa Calm     97% 0 mm 0 W/m2
02:49 19.9 °C 19.4 °C 1007 hPa Calm     97% 0 mm 0 W/m2
02:54 19.9 °C 19.4 °C 1006.7 hPa Calm     97% 0 mm 0 W/m2
02:59 19.8 °C 19.4 °C 1007 hPa Calm     97% 0 mm 0 W/m2
03:04 19.8 °C 19.3 °C 1007 hPa Calm     97% 0 mm 0 W/m2
03:09 19.8 °C 19.3 °C 1007 hPa Calm     97% 0 mm 0 W/m2
03:14 19.8 °C 19.3 °C 1006.7 hPa Calm     96.6% 0 mm 0 W/m2
03:19 19.8 °C 19.1 °C 1007 hPa Calm     96% 0 mm 0 W/m2
03:24 19.8 °C 19.1 °C 1006.7 hPa Calm     96% 0 mm 0 W/m2
03:29 19.8 °C 19.1 °C 1006.7 hPa Calm     96% 0 mm 0 W/m2
03:34 19.8 °C 19.1 °C 1006.7 hPa Calm     96% 0 mm 0 W/m2
03:39 19.8 °C 19.1 °C 1006.7 hPa Calm     96% 0 mm 0 W/m2
03:44 19.8 °C 19.3 °C 1006.7 hPa Calm     96.8% 0 mm 0 W/m2
03:49 19.8 °C 19.3 °C 1006.7 hPa Calm     97% 0 mm 0 W/m2
03:54 19.8 °C 19.3 °C 1006.7 hPa Calm     97% 0 mm 0 W/m2
03:59 19.8 °C 19.3 °C 1006.7 hPa Calm     97% 0 mm 0 W/m2
04:00 19.8 °C 19.3 °C 1006.7 hPa Calm     97% 0 mm 0 W/m2
04:09 19.8 °C 19.3 °C 1006.7 hPa Calm     97% 0 mm 0 W/m2
04:14 19.8 °C 19.3 °C 1006.7 hPa Calm     97% 0 mm 0 W/m2
04:19 19.8 °C 19.3 °C 1006.7 hPa Calm     97% 0 mm 0 W/m2
04:24 19.8 °C 19.3 °C 1006.7 hPa Calm     97% 0 mm 0 W/m2
04:29 19.7 °C 19.2 °C 1006.7 hPa Calm     97% 0 mm 0 W/m2
04:34 19.7 °C 19.3 °C 1006.3 hPa Calm     97% 0 mm 0 W/m2
04:39 19.7 °C 19.2 °C 1006.3 hPa Calm     97% 0 mm 0 W/m2
04:44 19.8 °C 19.3 °C 1006.3 hPa Calm     97% 0 mm 0 W/m2
04:49 19.7 °C 19.2 °C 1006 hPa Calm     97% 0 mm 0 W/m2
04:54 19.7 °C 19.2 °C 1006.3 hPa Calm     97% 0 mm 0 W/m2
04:59 19.7 °C 19.2 °C 1006.3 hPa Calm     97% 0.25 mm 0 W/m2
05:04 19.7 °C 19.2 °C 1006.3 hPa Calm     97% 0.25 mm 0 W/m2
05:09 19.7 °C 19.2 °C 1006.3 hPa Calm     97% 0.25 mm 0 W/m2
05:14 19.7 °C 19.2 °C 1006 hPa Calm     97% 0.25 mm 0 W/m2
05:19 19.7 °C 19.2 °C 1006.3 hPa Calm     97% 0.25 mm 0 W/m2
05:24 19.7 °C 19.2 °C 1006.3 hPa Calm     97% 0.25 mm 0 W/m2
05:29 19.7 °C 19.2 °C 1006.3 hPa Calm     97% 0.25 mm 0 W/m2
05:34 19.7 °C 19.2 °C 1006.3 hPa Calm     97% 0.25 mm 0 W/m2
05:39 19.7 °C 19.2 °C 1006.7 hPa Calm     97% 0.25 mm 0 W/m2
05:44 19.6 °C 19.1 °C 1006.7 hPa Calm     97% 0.25 mm 0 W/m2
05:49 19.6 °C 19.1 °C 1006.7 hPa Calm     97% 0.25 mm 0 W/m2
05:54 19.6 °C 19.1 °C 1006.7 hPa Calm     97% 0.25 mm 0 W/m2
05:59 19.5 °C 19 °C 1006.7 hPa Calm     97% 0.25 mm 0 W/m2
06:04 19.4 °C 18.9 °C 1006.3 hPa Calm     97% 0.25 mm 0 W/m2
06:09 19.4 °C 18.9 °C 1006.3 hPa Calm     97% 0 mm 0 W/m2
06:14 19.3 °C 18.7 °C 1006.7 hPa Calm     96.1% 0 mm 0 W/m2
06:19 19.2 °C 18.7 °C 1007 hPa Calm     96.9% 0 mm 0 W/m2
06:24 19.2 °C 18.7 °C 1007 hPa Calm     97% 0 mm 0 W/m2
06:29 19.1 °C 18.7 °C 1007 hPa Calm     97% 0 mm 0 W/m2
06:34 19.1 °C 18.5 °C 1007 hPa Calm     96.5% 0 mm 0 W/m2
06:39 19 °C 18.3 °C 1007 hPa Calm     96% 0 mm 0 W/m2
06:44 18.9 °C 18.3 °C 1007 hPa Calm     96% 0 mm 7 W/m2
06:49 18.9 °C 18.3 °C 1007 hPa Calm     96% 0 mm 11 W/m2
06:54 18.8 °C 18.4 °C 1007 hPa Calm     97% 0 mm 14 W/m2
06:59 18.8 °C 18.3 °C 1007 hPa Calm     97% 0 mm 26 W/m2
07:04 18.9 °C 18.4 °C 1007 hPa Calm     97% 0 mm 26 W/m2
07:09 19 °C 18.5 °C 1007.3 hPa Calm     97% 0 mm 33 W/m2
07:14 19.1 °C 18.6 °C 1007 hPa Calm     97% 0 mm 35 W/m2
07:19 19.1 °C 18.7 °C 1007 hPa Calm     97% 0 mm 40 W/m2
07:24 19.2 °C 18.7 °C 1007 hPa Calm     97% 0 mm 49 W/m2
07:29 19.3 °C 18.8 °C 1007 hPa Calm     97% 0 mm 54 W/m2
07:34 19.4 °C 18.9 °C 1007 hPa Calm     97% 0 mm 65 W/m2
07:39 19.6 °C 19.1 °C 1007 hPa Calm     97% 0 mm 79 W/m2
07:44 19.8 °C 19.3 °C 1007 hPa Calm     97% 0 mm 86 W/m2
07:49 20.1 °C 19.6 °C 1007.3 hPa Calm     97% 0 mm 86 W/m2
07:54 20.3 °C 19.8 °C 1007.3 hPa Calm     97% 0 mm 74 W/m2
07:59 20.4 °C 19.9 °C 1007.3 hPa Calm     97% 0 mm 97 W/m2
08:09 20.6 °C 20.1 °C 1007.3 hPa WSW 0.3 km/h 8 km/h 97% 0 mm 123 W/m2
08:14 20.6 °C 20.1 °C 1007.3 hPa WSW 0.5 km/h 8 km/h 97% 0 mm 120 W/m2
08:19 20.5 °C 20 °C 1007.3 hPa WSW 0.3 km/h 8 km/h 97% 0 mm 137 W/m2
08:24 20.5 °C 20 °C 1007.3 hPa West 0.2 km/h 8 km/h 97% 0 mm 202 W/m2
08:29 20.6 °C 20.1 °C 1007.3 hPa Calm   8 km/h 97% 0 mm 343 W/m2
08:34 20.6 °C 20.1 °C 1007.3 hPa Calm   8 km/h 97% 0 mm 359 W/m2
08:39 20.7 °C 20.2 °C 1007.3 hPa Calm   1.6 km/h 97% 0 mm 388 W/m2
08:44 20.8 °C 20.3 °C 1007.3 hPa WSW 2.4 km/h 11.3 km/h 97% 0 mm 434 W/m2
08:49 20.9 °C 20.4 °C 1007.3 hPa WSW 0.8 km/h 11.3 km/h 97% 0 mm 441 W/m2
08:54 21.2 °C 20.7 °C 1007.3 hPa West 0.3 km/h 11.3 km/h 97% 0 mm 490 W/m2
08:59 21.5 °C 21 °C 1007.3 hPa West 1.6 km/h 11.3 km/h 97% 0 mm 490 W/m2
09:04 21.8 °C 21.1 °C 1007.3 hPa Calm   11.3 km/h 96.1% 0 mm 547 W/m2
09:09 22.2 °C 21.4 °C 1007.3 hPa WSW 0.2 km/h 4.8 km/h 95.6% 0 mm 547 W/m2
09:14 22.6 °C 21.7 °C 1007.7 hPa Calm   4.8 km/h 94.6% 0 mm 538 W/m2
09:19 23.1 °C 21.9 °C 1007.3 hPa WSW 0.3 km/h 4.8 km/h 92.9% 0 mm 538 W/m2
09:24 23.4 °C 21.7 °C 1007.7 hPa WSW 1 km/h 6.4 km/h 90.1% 0 mm 563 W/m2
09:29 23.7 °C 21.4 °C 1007.3 hPa WSW 0.2 km/h 6.4 km/h 87.2% 0 mm 557 W/m2
09:34 23.9 °C 21.3 °C 1007.3 hPa Calm   6.4 km/h 85.7% 0 mm 589 W/m2
09:39 24.1 °C 21.3 °C 1007.7 hPa WSW 3.1 km/h 11.3 km/h 84.3% 0 mm 596 W/m2
09:44 24.2 °C 20.9 °C 1007.7 hPa WNW 2.6 km/h 11.3 km/h 82% 0 mm 606 W/m2
09:49 24.3 °C 21.1 °C 1007.7 hPa WNW 0.5 km/h 11.3 km/h 82% 0 mm 621 W/m2
09:54 24.6 °C 21.1 °C 1008 hPa West 3.9 km/h 14.5 km/h 80.9% 0 mm 724 W/m2
09:59 24.9 °C 20.8 °C 1008 hPa WNW 1.1 km/h 14.5 km/h 78.4% 0 mm 803 W/m2
10:04 25.1 °C 20.8 °C 1008 hPa Calm   14.5 km/h 77% 0 mm 793 W/m2
10:09 25.1 °C 20.8 °C 1008 hPa WNW 0.8 km/h 8 km/h 77.1% 0 mm 807 W/m2
10:14 25.1 °C 20.8 °C 1007.7 hPa WNW 1 km/h 8 km/h 77.1% 0 mm 807 W/m2
10:19 25.3 °C 21 °C 1007.7 hPa WNW 1.4 km/h 8 km/h 77.3% 0 mm 761 W/m2
10:24 25.4 °C 20.9 °C 1007.7 hPa WNW 0.6 km/h 8 km/h 76.2% 0 mm 715 W/m2
10:29 25.7 °C 21.6 °C 1007.7 hPa Calm   8 km/h 78.1% 0 mm 729 W/m2
10:34 25.9 °C 21.4 °C 1007.7 hPa Calm   8 km/h 76.1% 0 mm 766 W/m2
10:39 26.2 °C 21.4 °C 1007.7 hPa WNW 0.2 km/h 3.2 km/h 75.2% 0 mm 752 W/m2
10:44 26.3 °C 21.4 °C 1007.7 hPa WNW 0.6 km/h 4.8 km/h 74.1% 0 mm 758 W/m2
10:49 26.6 °C 21.4 °C 1007.7 hPa WNW 0.3 km/h 4.8 km/h 73.6% 0 mm 758 W/m2
10:54 26.6 °C 20.9 °C 1007.7 hPa Calm   4.8 km/h 71% 0 mm 759 W/m2
10:59 26.6 °C 20.9 °C 1007.3 hPa Calm   4.8 km/h 71.1% 0 mm 758 W/m2
11:04 26.7 °C 20.9 °C 1007.3 hPa WNW 0.3 km/h 6.4 km/h 70.3% 0 mm 772 W/m2
11:09 26.9 °C 21.3 °C 1007.3 hPa West 0.8 km/h 8 km/h 71.2% 0 mm 784 W/m2
11:14 27.2 °C 21.1 °C 1007.3 hPa WSW 0.8 km/h 8 km/h 69.3% 0 mm 788 W/m2
11:19 27.4 °C 20.9 °C 1007.3 hPa WNW 1.8 km/h 11.3 km/h 67.7% 0 mm 800 W/m2
11:24 27.6 °C 21.4 °C 1007.3 hPa WNW 0.3 km/h 11.3 km/h 69.1% 0 mm 810 W/m2
11:29 27.8 °C 21 °C 1007.3 hPa West 1.6 km/h 11.3 km/h 66.4% 0 mm 817 W/m2
11:34 28.1 °C 20.8 °C 1007.3 hPa West 0.6 km/h 11.3 km/h 64.6% 0 mm 819 W/m2
11:39 28.3 °C 20.7 °C 1007.3 hPa West 2.1 km/h 9.7 km/h 63.5% 0 mm 830 W/m2
11:44 28.4 °C 20.8 °C 1007.3 hPa WSW 1.6 km/h 12.9 km/h 63.5% 0 mm 846 W/m2
11:49 28.3 °C 20.3 °C 1007.3 hPa WSW 2.1 km/h 12.9 km/h 61.5% 0 mm 853 W/m2
11:54 28.2 °C 20.2 °C 1007.3 hPa WSW 0.8 km/h 12.9 km/h 61.9% 0 mm 763 W/m2
11:59 28 °C 20.2 °C 1007.3 hPa WSW 5.1 km/h 12.9 km/h 62.6% 0 mm 763 W/m2
12:00 27.9 °C 19.9 °C 1007.3 hPa Calm   12.9 km/h 62% 0 mm 163 W/m2
12:09 27.3 °C 19.9 °C 1007 hPa SW 1.3 km/h 11.3 km/h 63.8% 0 mm 135 W/m2
12:14 27 °C 19.7 °C 1007 hPa WSW 0.5 km/h 11.3 km/h 64.2% 0 mm 109 W/m2
12:19 26.7 °C 19.3 °C 1007 hPa WSW 0.2 km/h 11.3 km/h 63.9% 0 mm 144 W/m2
12:24 26.6 °C 19.1 °C 1007 hPa SW 2.1 km/h 11.3 km/h 63.5% 0 mm 193 W/m2
12:29 26.5 °C 18.6 °C 1007 hPa SW 0.6 km/h 11.3 km/h 61.8% 0 mm 121 W/m2
12:34 26.5 °C 18.6 °C 1007 hPa SW 2.1 km/h 16.1 km/h 61.6% 0 mm 116 W/m2
12:39 26.6 °C 18.7 °C 1007 hPa WSW 1.6 km/h 16.1 km/h 62% 0 mm 135 W/m2
12:44 26.6 °C 18.6 °C 1006.7 hPa SW 1.6 km/h 16.1 km/h 61.3% 0 mm 272 W/m2
12:49 26.7 °C 18.4 °C 1006.7 hPa SW 3.2 km/h 16.1 km/h 60.5% 0 mm 251 W/m2
12:54 26.7 °C 18.3 °C 1006.7 hPa SW 3.7 km/h 16.1 km/h 59.7% 0 mm 381 W/m2
12:59 26.8 °C 17.8 °C 1006.3 hPa SW 2.6 km/h 16.1 km/h 58.1% 0 mm 700 W/m2
13:04 26.8 °C 18.2 °C 1006.3 hPa SW 1 km/h 16.1 km/h 59.2% 0 mm 700 W/m2
13:09 26.8 °C 18.6 °C 1006.3 hPa SW 1.9 km/h 9.7 km/h 60.9% 0 mm 84 W/m2
13:14 26.9 °C 18.5 °C 1006.3 hPa SW 1.6 km/h 9.7 km/h 60.2% 0 mm 95 W/m2
13:19 26.9 °C 18.3 °C 1006.3 hPa Calm   9.7 km/h 59.1% 0 mm 77 W/m2
13:24 27 °C 18.2 °C 1006.3 hPa WSW 2.1 km/h 9.7 km/h 58.7% 0 mm 72 W/m2
13:29 27.1 °C 17.4 °C 1006 hPa SW 1.9 km/h 12.9 km/h 55.6% 0 mm 146 W/m2
13:34 27.2 °C 17.5 °C 1006 hPa WSW 1.8 km/h 12.9 km/h 55.4% 0 mm 403 W/m2
13:39 27.3 °C 17.7 °C 1006 hPa WSW 4.8 km/h 17.7 km/h 55.5% 0 mm 325 W/m2
13:44 27.4 °C 17.2 °C 1006 hPa WSW 3.7 km/h 17.7 km/h 53.5% 0 mm 125 W/m2
13:49 27.4 °C 16.9 °C 1006 hPa WSW 4.7 km/h 17.7 km/h 52.8% 0 mm 158 W/m2
13:54 27.5 °C 17 °C 1006 hPa WSW 4.2 km/h 17.7 km/h 52.7% 0 mm 88 W/m2
13:59 27.5 °C 16.6 °C 1006 hPa WSW 4.5 km/h 22.5 km/h 51.1% 0 mm 357 W/m2
14:04 27.6 °C 16.9 °C 1006 hPa WSW 3.1 km/h 22.5 km/h 52.3% 0 mm 381 W/m2
14:09 27.6 °C 16.7 °C 1006 hPa WSW 2.7 km/h 17.7 km/h 51.4% 0 mm 411 W/m2
14:14 27.7 °C 17.1 °C 1006 hPa WSW 6.1 km/h 17.7 km/h 52.4% 0 mm 826 W/m2
14:19 27.9 °C 17.3 °C 1005.6 hPa WSW 5.1 km/h 17.7 km/h 52.7% 0 mm 844 W/m2
14:24 28.1 °C 17.1 °C 1005.6 hPa SW 4.5 km/h 17.7 km/h 51.3% 0 mm 821 W/m2
14:29 28.3 °C 17.3 °C 1005.6 hPa WSW 3.1 km/h 17.7 km/h 51.1% 0 mm 805 W/m2
14:34 28.6 °C 17.3 °C 1005.6 hPa WSW 3.4 km/h 17.7 km/h 50.8% 0 mm 814 W/m2
14:39 28.6 °C 17.2 °C 1005.3 hPa SW 4.2 km/h 17.7 km/h 50.4% 0 mm 812 W/m2
14:44 28.6 °C 17.3 °C 1005.3 hPa West 6 km/h 17.7 km/h 50.5% 0 mm 773 W/m2
14:49 28.7 °C 16.8 °C 1005.3 hPa West 6.1 km/h 22.5 km/h 48.8% 0 mm 765 W/m2
14:54 28.7 °C 17.2 °C 1005.3 hPa WSW 5 km/h 22.5 km/h 49.9% 0 mm 766 W/m2
14:59 28.7 °C 16.9 °C 1005.3 hPa WSW 6.1 km/h 22.5 km/h 49% 0 mm 761 W/m2
15:04 28.8 °C 16.9 °C 1005.3 hPa SW 4.2 km/h 22.5 km/h 48.6% 0 mm 754 W/m2
15:09 28.8 °C 17 °C 1005 hPa WSW 6.3 km/h 17.7 km/h 49% 0 mm 731 W/m2
15:14 28.8 °C 16.7 °C 1005 hPa WSW 5.1 km/h 17.7 km/h 47.9% 0 mm 719 W/m2
15:19 28.8 °C 16.5 °C 1005 hPa WSW 6.1 km/h 17.7 km/h 47.3% 0 mm 710 W/m2
15:24 28.8 °C 16.2 °C 1005 hPa WSW 7.2 km/h 27.4 km/h 46.3% 0 mm 696 W/m2
15:29 28.8 °C 16.1 °C 1005.3 hPa WSW 6 km/h 27.4 km/h 46.1% 0 mm 682 W/m2
15:34 28.8 °C 16.2 °C 1005.3 hPa WSW 6.4 km/h 27.4 km/h 46.3% 0 mm 668 W/m2
15:39 28.8 °C 16.5 °C 1005.3 hPa WSW 7.6 km/h 20.9 km/h 47.2% 0 mm 663 W/m2
15:44 28.8 °C 16.6 °C 1005.3 hPa SW 2.9 km/h 20.9 km/h 47.6% 0 mm 650 W/m2
15:49 28.8 °C 17.1 °C 1005.3 hPa SW 1.6 km/h 20.9 km/h 49% 0 mm 626 W/m2
15:54 28.8 °C 16.9 °C 1005.3 hPa WSW 3.9 km/h 20.9 km/h 48.8% 0 mm 638 W/m2
15:59 28.7 °C 16.4 °C 1005.3 hPa WSW 6.9 km/h 22.5 km/h 47.4% 0 mm 640 W/m2
16:00 28.6 °C 16.2 °C 1005.3 hPa NW 1.6 km/h 22.5 km/h 47% 0 mm 615 W/m2
16:09 28.3 °C 16.2 °C 1005.3 hPa WSW 4.3 km/h 19.3 km/h 48% 0 mm 42 W/m2
16:14 28.1 °C 15.6 °C 1005.3 hPa WSW 5.8 km/h 19.3 km/h 46.6% 0 mm 39 W/m2
16:19 27.9 °C 15.6 °C 1005.3 hPa SW 3.7 km/h 19.3 km/h 47.2% 0 mm 37 W/m2
16:24 27.7 °C 15.7 °C 1005.3 hPa WSW 4.5 km/h 19.3 km/h 48% 0 mm 35 W/m2
16:29 27.6 °C 15.9 °C 1005.3 hPa WSW 4 km/h 19.3 km/h 49% 0 mm 35 W/m2
16:34 27.6 °C 15.9 °C 1005.6 hPa WSW 2.9 km/h 19.3 km/h 49.1% 0 mm 35 W/m2
16:39 27.4 °C 15.7 °C 1005.6 hPa WSW 3.4 km/h 17.7 km/h 48.7% 0 mm 35 W/m2
16:44 27.4 °C 15.7 °C 1005.6 hPa West 5.8 km/h 19.3 km/h 48.6% 0 mm 33 W/m2
16:49 27.3 °C 15.7 °C 1005.6 hPa WNW 2.1 km/h 19.3 km/h 49% 0 mm 33 W/m2
16:54 27.3 °C 15.8 °C 1005.6 hPa WSW 3.4 km/h 19.3 km/h 49.5% 0 mm 39 W/m2
16:59 27.3 °C 15.9 °C 1005.6 hPa WNW 3.7 km/h 19.3 km/h 49.8% 0 mm 69 W/m2
17:04 27.2 °C 15.7 °C 1005.6 hPa WSW 5.6 km/h 22.5 km/h 49.2% 0 mm 93 W/m2
17:09 27.2 °C 15.6 °C 1005.6 hPa WSW 3.5 km/h 22.5 km/h 49.1% 0 mm 91 W/m2
17:14 27.1 °C 15.5 °C 1005.6 hPa WSW 5.1 km/h 22.5 km/h 49.2% 0 mm 91 W/m2
17:19 26.9 °C 15.3 °C 1005.6 hPa West 4.7 km/h 22.5 km/h 49% 0 mm 65 W/m2
17:24 26.7 °C 15.2 °C 1005.6 hPa West 4.3 km/h 22.5 km/h 49.3% 0 mm 42 W/m2
17:29 26.6 °C 15.6 °C 1006 hPa WNW 2.6 km/h 22.5 km/h 50.9% 0 mm 47 W/m2
17:34 26.4 °C 15.8 °C 1006 hPa WNW 2.6 km/h 22.5 km/h 51.8% 0 mm 47 W/m2
17:39 26.4 °C 15.8 °C 1006 hPa West 2.6 km/h 11.3 km/h 52.1% 0 mm 39 W/m2
17:44 26.4 °C 16.1 °C 1006 hPa WSW 2.7 km/h 14.5 km/h 53% 0 mm 30 W/m2
17:49 26.3 °C 15.6 °C 1006 hPa West 5 km/h 16.1 km/h 51.7% 0 mm 28 W/m2
17:54 26.2 °C 15.6 °C 1006 hPa West 1.8 km/h 16.1 km/h 52% 0 mm 26 W/m2
17:59 26.2 °C 15.8 °C 1006.3 hPa West 1.3 km/h 16.1 km/h 53% 0 mm 25 W/m2
18:04 26.1 °C 15.8 °C 1006.3 hPa West 2.4 km/h 16.1 km/h 53% 0 mm 23 W/m2
18:09 25.9 °C 15.9 °C 1006.3 hPa WSW 0.6 km/h 14.5 km/h 54% 0 mm 21 W/m2
18:14 25.9 °C 16.1 °C 1006.3 hPa West 0.8 km/h 14.5 km/h 54.8% 0 mm 21 W/m2
18:19 25.7 °C 15.9 °C 1006.3 hPa WNW 3.9 km/h 14.5 km/h 54.5% 0 mm 19 W/m2
18:24 25.6 °C 15.6 °C 1006.7 hPa WNW 5 km/h 16.1 km/h 54.2% 0 mm 19 W/m2
18:29 25.4 °C 15.9 °C 1006.7 hPa WNW 1 km/h 16.1 km/h 55.8% 0 mm 11 W/m2
18:34 25.2 °C 15.9 °C 1006.7 hPa WNW 1.6 km/h 16.1 km/h 56.2% 0 mm 14 W/m2
18:39 25 °C 15.9 °C 1006.7 hPa WNW 1 km/h 6.4 km/h 57% 0 mm 21 W/m2
18:44 24.8 °C 16 °C 1007 hPa WNW 0.2 km/h 6.4 km/h 58% 0 mm 23 W/m2
18:49 24.7 °C 16.2 °C 1007 hPa Calm   6.4 km/h 59% 0 mm 26 W/m2
18:54 24.6 °C 16.2 °C 1007 hPa Calm   6.4 km/h 59.7% 0 mm 16 W/m2
18:59 24.5 °C 16.2 °C 1007 hPa Calm   6.4 km/h 60% 0 mm 12 W/m2
19:04 24.4 °C 16.1 °C 1007 hPa Calm   6.4 km/h 60% 0 mm 7 W/m2
19:09 24.3 °C 16 °C 1007 hPa Calm     60% 0 mm 5 W/m2
19:14 24.1 °C 15.9 °C 1007 hPa Calm     60.3% 0 mm 0 W/m2
19:19 24 °C 16.1 °C 1007 hPa Calm     61.1% 0 mm 0 W/m2
19:24 23.8 °C 16.2 °C 1007 hPa Calm     62.2% 0 mm 0 W/m2
19:29 23.7 °C 16.3 °C 1007.3 hPa Calm     63.5% 0 mm 0 W/m2
19:34 23.5 °C 16.3 °C 1007.3 hPa Calm     64.3% 0 mm 0 W/m2
19:39 23.3 °C 16.5 °C 1007.3 hPa Calm     65.6% 0 mm 0 W/m2
19:44 23.1 °C 16.3 °C 1007.3 hPa Calm     65.5% 0 mm 0 W/m2
19:49 22.9 °C 16.2 °C 1007.7 hPa WNW 0.2 km/h 4.8 km/h 66% 0 mm 0 W/m2
19:54 22.7 °C 16 °C 1007.7 hPa Calm   4.8 km/h 66% 0 mm 0 W/m2
19:59 22.4 °C 16.1 °C 1007.7 hPa Calm   4.8 km/h 67.3% 0 mm 0 W/m2
20:00 22.3 °C 16.4 °C 1007.7 hPa Calm   4.8 km/h 69% 0 mm 0 W/m2
20:09 22 °C 16.1 °C 1008 hPa Calm     69.3% 0 mm 0 W/m2
20:14 21.8 °C 15.9 °C 1008 hPa Calm     69.3% 0 mm 0 W/m2
20:19 21.7 °C 15.8 °C 1008 hPa Calm     69.2% 0 mm 0 W/m2
20:24 21.5 °C 15.7 °C 1008 hPa Calm     69.6% 0 mm 0 W/m2
20:29 21.4 °C 15.7 °C 1008.4 hPa Calm     70% 0 mm 0 W/m2
20:34 21.3 °C 15.6 °C 1008.4 hPa Calm     70% 0 mm 0 W/m2
20:39 21.1 °C 15.6 °C 1008.4 hPa Calm     70.6% 0 mm 0 W/m2
20:44 21 °C 15.7 °C 1008.7 hPa Calm     71.8% 0 mm 0 W/m2
20:49 20.8 °C 15.8 °C 1008.7 hPa Calm   1.6 km/h 73% 0 mm 0 W/m2
20:54 20.6 °C 15.6 °C 1008.7 hPa Calm   1.6 km/h 73% 0 mm 0 W/m2
20:59 20.4 °C 15.4 °C 1009 hPa Calm   1.6 km/h 73% 0 mm 0 W/m2
21:04 20.3 °C 15.3 °C 1009 hPa Calm   1.6 km/h 73% 0 mm 0 W/m2
21:09 20.2 °C 15.2 °C 1009 hPa Calm     73% 0 mm 0 W/m2
21:14 20.1 °C 15.1 °C 1009.4 hPa Calm     73% 0 mm 0 W/m2
21:19 20.1 °C 15.1 °C 1009.4 hPa Calm     73% 0 mm 0 W/m2
21:24 19.9 °C 15.2 °C 1009.4 hPa Calm     74% 0 mm 0 W/m2
21:29 19.9 °C 15.1 °C 1009.4 hPa Calm     74% 0 mm 0 W/m2
21:34 19.8 °C 15.1 °C 1009.4 hPa Calm     74% 0 mm 0 W/m2
21:39 19.7 °C 14.9 °C 1009.4 hPa Calm     74% 0 mm 0 W/m2
21:44 19.6 °C 15.1 °C 1009.4 hPa Calm     74.9% 0 mm 0 W/m2
21:49 19.5 °C 15 °C 1009.4 hPa Calm     75.1% 0 mm 0 W/m2
21:54 19.4 °C 14.9 °C 1009.7 hPa Calm     75% 0 mm 0 W/m2
21:59 19.3 °C 14.8 °C 1009.7 hPa Calm     75.3% 0 mm 0 W/m2
22:04 19.2 °C 14.9 °C 1009.7 hPa Calm     76% 0 mm 0 W/m2
22:09 19.1 °C 14.8 °C 1009.7 hPa Calm     76% 0 mm 0 W/m2
22:14 19 °C 14.8 °C 1009.7 hPa Calm     76.6% 0 mm 0 W/m2
22:19 18.9 °C 14.9 °C 1009.7 hPa Calm     77.6% 0 mm 0 W/m2
22:24 18.8 °C 14.9 °C 1010 hPa Calm     78% 0 mm 0 W/m2
22:29 18.7 °C 14.9 °C 1010 hPa Calm     78.5% 0 mm 0 W/m2
22:34 18.6 °C 14.9 °C 1010 hPa Calm     79% 0 mm 0 W/m2
22:39 18.5 °C 14.9 °C 1010 hPa Calm     79.6% 0 mm 0 W/m2
22:44 18.4 °C 14.8 °C 1010.4 hPa Calm     80% 0 mm 0 W/m2
22:49 18.3 °C 14.8 °C 1010.4 hPa Calm     80% 0 mm 0 W/m2
22:54 18.2 °C 14.7 °C 1010.4 hPa Calm     80% 0 mm 0 W/m2
22:59 18.1 °C 14.7 °C 1010.4 hPa Calm     80.5% 0 mm 0 W/m2
23:04 18 °C 14.7 °C 1010.4 hPa Calm     80.8% 0 mm 0 W/m2
23:09 17.9 °C 14.6 °C 1010.4 hPa Calm     81% 0 mm 0 W/m2
23:14 17.9 °C 14.6 °C 1010.4 hPa Calm     81% 0 mm 0 W/m2
23:19 17.8 °C 14.6 °C 1010.4 hPa Calm     81% 0 mm 0 W/m2
23:24 17.8 °C 14.6 °C 1010.4 hPa Calm     81% 0 mm 0 W/m2
23:29 17.8 °C 14.5 °C 1010.4 hPa Calm     81% 0 mm 0 W/m2
23:34 17.7 °C 14.4 °C 1010.7 hPa Calm     81% 0 mm 0 W/m2
23:39 17.7 °C 14.4 °C 1010.7 hPa Calm     81% 0 mm 0 W/m2
23:44 17.6 °C 14.4 °C 1010.7 hPa Calm     81.5% 0 mm 0 W/m2
23:49 17.5 °C 14.4 °C 1010.7 hPa Calm   3.2 km/h 82% 0 mm 0 W/m2
23:54 17.4 °C 14.3 °C 1010.7 hPa Calm   3.2 km/h 82% 0 mm 0 W/m2
23:59 17.4 °C 14.3 °C 1010.7 hPa WNW 0.2 km/h 3.2 km/h 82% 0 mm 0 W/m2
Hartford County Weather
Compliments of Weather Underground - 2 mb